Time;durP1;ratioP1;P1;durP2;ratioP2;P2;SDS_P1;SDS_P2;PMS_P1;PMS_P2;Temp;Humidity;BMP_temperature;BMP_pressure;BME280_temperature;BME280_humidity;BME280_pressure;Samples;Min_cycle;Max_cycle;Signal;HPM_P1;HPM_P2
2021/01/02 00:01:01;;;;;;;3.50;3.23;;;3.50;99.90;;;;;;5128874;27;20236;-72
2021/01/02 00:03:44;;;;;;;3.87;3.43;;;3.50;99.90;;;;;;5128467;27;20296;-72
2021/01/02 00:06:20;;;;;;;3.90;3.60;;;3.50;99.90;;;;;;5128502;27;20248;-72
2021/01/02 00:08:53;;;;;;;3.73;3.17;;;3.50;99.90;;;;;;5129004;27;20193;-72
2021/01/02 00:11:52;;;;;;;3.40;3.10;;;3.50;99.90;;;;;;5128623;27;20280;-72
2021/01/02 00:14:30;;;;;;;3.40;3.10;;;3.40;99.90;;;;;;5129067;27;20200;-72
2021/01/02 00:17:28;;;;;;;5.73;3.30;;;3.40;99.90;;;;;;5122173;27;20609;-72
2021/01/02 00:20:05;;;;;;;5.07;3.70;;;3.50;99.90;;;;;;5114669;27;20680;-72
2021/01/02 00:22:46;;;;;;;3.33;3.13;;;3.50;99.90;;;;;;5107765;28;20293;-72
2021/01/02 00:25:15;;;;;;;2.90;2.70;;;3.50;99.90;;;;;;5107919;28;20210;-72
2021/01/02 00:28:06;;;;;;;3.50;3.23;;;3.50;99.90;;;;;;5107847;28;20240;-72
2021/01/02 00:31:07;;;;;;;3.23;2.93;;;3.50;99.90;;;;;;5094277;28;20732;-72
2021/01/02 00:33:57;;;;;;;3.20;2.90;;;3.50;99.90;;;;;;5107623;27;20220;-71
2021/01/02 00:36:33;;;;;;;2.87;2.67;;;3.40;99.90;;;;;;5107073;28;20610;-72
2021/01/02 00:39:00;;;;;;;3.03;2.50;;;3.40;99.90;;;;;;5107024;28;20649;-72
2021/01/02 00:41:28;;;;;;;3.30;3.00;;;3.40;99.90;;;;;;5106722;27;20672;-71
2021/01/02 00:43:54;;;;;;;2.90;2.70;;;3.30;99.90;;;;;;5107318;28;20271;-72
2021/01/02 00:46:21;;;;;;;2.90;2.70;;;3.30;99.90;;;;;;5106914;28;20301;-71
2021/01/02 00:48:48;;;;;;;2.73;2.53;;;3.40;99.90;;;;;;5107647;28;20258;-71
2021/01/02 00:51:16;;;;;;;2.97;2.70;;;3.40;99.90;;;;;;5107404;28;20669;-71
2021/01/02 00:53:59;;;;;;;3.57;3.13;;;3.40;99.90;;;;;;5107645;28;20202;-72
2021/01/02 00:56:30;;;;;;;5.37;3.73;;;3.40;99.90;;;;;;5107200;28;20238;-71
2021/01/02 00:59:41;;;;;;;3.03;2.73;;;3.40;99.90;;;;;;5108195;27;20206;-84
2021/01/02 01:02:29;;;;;;;2.97;2.77;;;3.40;99.90;;;;;;5108037;27;21017;-84
2021/01/02 01:05:20;;;;;;;2.80;2.60;;;3.40;99.90;;;;;;5131832;27;20570;-83
2021/01/02 01:07:54;;;;;;;2.63;2.43;;;3.30;99.90;;;;;;5131748;27;20226;-84
2021/01/02 01:10:23;;;;;;;2.97;2.60;;;3.40;99.90;;;;;;5131192;27;20292;-83
2021/01/02 01:12:59;;;;;;;3.27;2.50;;;3.40;99.90;;;;;;5131679;27;20209;-84
2021/01/02 01:15:25;;;;;;;2.40;2.30;;;3.40;99.90;;;;;;5131345;27;20200;-84
2021/01/02 01:18:05;;;;;;;3.90;3.60;;;3.40;99.90;;;;;;5130840;27;20209;-85
2021/01/02 01:20:32;;;;;;;3.87;3.57;;;3.40;99.90;;;;;;5131703;27;20229;-84
2021/01/02 01:23:26;;;;;;;2.73;2.53;;;3.30;99.90;;;;;;5132405;27;20201;-84
2021/01/02 01:26:15;;;;;;;2.87;2.47;;;3.30;99.90;;;;;;5131945;27;20254;-84
2021/01/02 01:28:46;;;;;;;2.67;2.30;;;3.30;99.90;;;;;;5131330;27;20194;-86
2021/01/02 01:31:17;;;;;;;2.57;2.37;;;3.30;99.90;;;;;;5132157;27;20249;-85
2021/01/02 01:33:47;;;;;;;2.53;2.10;;;3.20;99.90;;;;;;5131909;27;20212;-85
2021/01/02 01:36:16;;;;;;;2.43;2.10;;;3.20;99.90;;;;;;5132274;27;20208;-85
2021/01/02 01:38:44;;;;;;;2.23;2.13;;;3.20;99.90;;;;;;5131894;27;20224;-85
2021/01/02 01:41:13;;;;;;;2.10;1.90;;;3.20;99.90;;;;;;5132123;27;20208;-84
2021/01/02 01:44:27;;;;;;;2.53;1.90;;;3.20;99.90;;;;;;5131666;27;20212;-85
2021/01/02 01:47:03;;;;;;;2.67;2.47;;;3.20;99.90;;;;;;5104165;27;20225;-86
2021/01/02 01:50:10;;;;;;;2.17;2.07;;;3.20;99.90;;;;;;5131238;27;20266;-82
2021/01/02 01:52:44;;;;;;;2.17;1.97;;;3.20;99.90;;;;;;5131012;27;20288;-85
2021/01/02 01:55:18;;;;;;;1.80;1.70;;;3.20;99.90;;;;;;5131211;27;20776;-84
2021/01/02 01:57:49;;;;;;;3.73;2.07;;;3.20;99.90;;;;;;5131241;27;20198;-84
2021/01/02 02:00:16;;;;;;;2.13;1.97;;;3.20;99.90;;;;;;5130323;27;20280;-77
2021/01/02 02:03:03;;;;;;;3.33;2.13;;;3.20;99.90;;;;;;5128859;27;20575;-77
2021/01/02 02:05:51;;;;;;;2.40;2.30;;;3.10;99.90;;;;;;5128571;27;20202;-77
2021/01/02 02:08:29;;;;;;;2.63;2.43;;;3.10;99.90;;;;;;5128841;27;20582;-79
2021/01/02 02:11:03;;;;;;;2.70;2.50;;;3.10;99.90;;;;;;5129204;27;20189;-78
2021/01/02 02:13:33;;;;;;;2.30;2.20;;;3.10;99.90;;;;;;5127823;27;20188;-79
2021/01/02 02:16:00;;;;;;;2.50;2.40;;;3.10;99.90;;;;;;5108528;28;20636;-80
2021/01/02 02:18:28;;;;;;;3.03;2.50;;;3.10;99.90;;;;;;5108247;28;20206;-81
2021/01/02 02:20:56;;;;;;;3.23;2.67;;;3.10;99.90;;;;;;5108691;28;20202;-80
2021/01/02 02:23:27;;;;;;;3.00;2.70;;;3.10;99.90;;;;;;5108092;28;20198;-80
2021/01/02 02:26:05;;;;;;;3.10;2.90;;;3.10;99.90;;;;;;5108989;28;20786;-85
2021/01/02 02:29:01;;;;;;;3.30;3.00;;;3.10;99.90;;;;;;5110037;28;20335;-84
2021/01/02 02:31:27;;;;;;;4.37;3.30;;;2.90;99.90;;;;;;5070298;28;20214;-85
2021/01/02 02:33:56;;;;;;;3.67;3.37;;;2.90;99.90;;;;;;5109034;28;20226;-81
2021/01/02 02:36:24;;;;;;;3.60;3.30;;;2.80;99.90;;;;;;5108064;28;20734;-81
2021/01/02 02:38:51;;;;;;;4.00;3.70;;;2.80;99.90;;;;;;5108475;28;20202;-81
2021/01/02 02:41:22;;;;;;;3.93;3.67;;;2.80;99.90;;;;;;5108246;28;20649;-81
2021/01/02 02:43:53;;;;;;;4.07;3.77;;;2.80;99.90;;;;;;5108033;28;20202;-81
2021/01/02 02:46:22;;;;;;;4.33;3.70;;;2.90;99.90;;;;;;5108064;28;20221;-79
2021/01/02 02:48:55;;;;;;;4.33;3.93;;;2.90;99.90;;;;;;5107847;28;20300;-80
2021/01/02 02:51:24;;;;;;;3.97;3.67;;;2.80;99.90;;;;;;5107798;28;20198;-80
2021/01/02 02:53:51;;;;;;;3.53;3.23;;;2.80;99.90;;;;;;5107740;28;20293;-80
2021/01/02 02:56:18;;;;;;;4.40;3.73;;;2.80;99.90;;;;;;5107380;28;20242;-80
2021/01/02 02:58:44;;;;;;;4.37;3.80;;;2.70;99.90;;;;;;5106516;28;20209;-81
2021/01/02 03:01:11;;;;;;;4.43;4.03;;;2.60;99.90;;;;;;5107628;28;20237;-80
2021/01/02 03:03:37;;;;;;;4.37;3.97;;;2.50;99.90;;;;;;5107347;28;20212;-80
2021/01/02 03:06:05;;;;;;;5.37;4.07;;;2.50;99.90;;;;;;5107666;28;20221;-80
2021/01/02 03:08:33;;;;;;;4.43;4.07;;;2.50;99.90;;;;;;5107578;28;20229;-81
2021/01/02 03:11:02;;;;;;;4.37;4.00;;;2.60;99.90;;;;;;5107481;28;20233;-80
2021/01/02 03:13:39;;;;;;;6.47;4.73;;;2.50;99.90;;;;;;5107594;28;20202;-80
2021/01/02 03:16:05;;;;;;;4.10;3.70;;;2.60;99.90;;;;;;5107594;28;20198;-81
2021/01/02 03:18:32;;;;;;;4.30;3.90;;;2.60;99.90;;;;;;5107070;28;20245;-81
2021/01/02 03:20:58;;;;;;;4.60;4.10;;;2.50;99.90;;;;;;5108211;28;20367;-84
2021/01/02 03:23:25;;;;;;;4.53;4.13;;;2.60;99.90;;;;;;5109075;28;20209;-84
2021/01/02 03:25:52;;;;;;;4.83;4.43;;;2.50;99.90;;;;;;5109267;28;20241;-84
2021/01/02 03:28:18;;;;;;;4.80;4.40;;;2.60;99.90;;;;;;5108597;28;20720;-83
2021/01/02 03:30:45;;;;;;;5.00;4.60;;;2.60;99.90;;;;;;5109132;28;20352;-84
2021/01/02 03:33:11;;;;;;;5.20;4.73;;;2.60;99.90;;;;;;5109329;28;20798;-85
2021/01/02 03:35:37;;;;;;;6.10;4.83;;;2.50;99.90;;;;;;5109748;28;20577;-84
2021/01/02 03:38:04;;;;;;;5.10;4.60;;;2.50;99.90;;;;;;5109432;28;20217;-84
2021/01/02 03:40:30;;;;;;;6.37;5.77;;;2.50;99.90;;;;;;5110008;28;20293;-84
2021/01/02 03:42:57;;;;;;;6.20;5.60;;;2.50;99.90;;;;;;5112229;28;20198;-81
2021/01/02 03:45:24;;;;;;;5.93;5.43;;;2.50;99.90;;;;;;5111406;28;20566;-82
2021/01/02 03:47:51;;;;;;;6.03;5.40;;;2.50;99.90;;;;;;5111309;27;20310;-81
2021/01/02 03:50:18;;;;;;;7.33;5.83;;;2.50;99.90;;;;;;5111388;28;20225;-81
2021/01/02 03:52:44;;;;;;;6.83;6.23;;;2.50;99.90;;;;;;5111162;28;20211;-80
2021/01/02 03:55:13;;;;;;;6.67;6.00;;;2.40;99.90;;;;;;5111230;28;20881;-81
2021/01/02 03:57:39;;;;;;;7.13;5.73;;;2.40;99.90;;;;;;5112935;28;20924;-85
2021/01/02 04:00:08;;;;;;;6.70;6.00;;;2.40;99.90;;;;;;5113118;28;20720;-84
2021/01/02 04:02:34;;;;;;;8.77;6.63;;;2.40;99.90;;;;;;5113232;28;20266;-86
2021/01/02 04:05:01;;;;;;;8.13;6.33;;;2.40;99.90;;;;;;5113401;28;20240;-85
2021/01/02 04:07:27;;;;;;;9.97;6.80;;;2.40;99.90;;;;;;5113024;28;20790;-84
2021/01/02 04:09:54;;;;;;;7.87;6.80;;;2.40;99.90;;;;;;5113361;28;20653;-85
2021/01/02 04:12:20;;;;;;;7.90;7.10;;;2.40;99.90;;;;;;5113434;28;20203;-85
2021/01/02 04:14:47;;;;;;;8.60;7.40;;;2.40;99.90;;;;;;5113485;28;20206;-86
2021/01/02 04:17:14;;;;;;;8.47;7.57;;;2.40;99.90;;;;;;5113160;28;20206;-84
2021/01/02 04:19:40;;;;;;;9.80;8.03;;;2.40;99.90;;;;;;5112106;28;20251;-81
2021/01/02 04:22:06;;;;;;;9.20;7.90;;;2.40;99.90;;;;;;5110564;28;20202;-80
2021/01/02 04:24:33;;;;;;;9.67;7.43;;;2.40;99.90;;;;;;5110355;28;20212;-81
2021/01/02 04:27:00;;;;;;;10.50;8.30;;;2.40;99.90;;;;;;5110499;28;20226;-81
2021/01/02 04:29:26;;;;;;;11.33;8.43;;;2.40;99.90;;;;;;5110305;28;20212;-80
2021/01/02 04:31:55;;;;;;;10.43;8.27;;;2.40;99.90;;;;;;5110403;28;20761;-80
2021/01/02 04:34:23;;;;;;;9.63;8.50;;;2.40;99.90;;;;;;5110252;28;20213;-80
2021/01/02 04:36:50;;;;;;;10.27;8.63;;;2.50;99.90;;;;;;5110344;28;20209;-79
2021/01/02 04:39:16;;;;;;;11.10;9.00;;;2.50;99.90;;;;;;5109962;28;20202;-81
2021/01/02 04:41:42;;;;;;;11.20;8.73;;;2.50;99.90;;;;;;5110264;28;20210;-80
2021/01/02 04:44:09;;;;;;;11.03;8.60;;;2.50;99.90;;;;;;5109790;27;20206;-80
2021/01/02 04:46:37;;;;;;;9.67;8.40;;;2.50;99.90;;;;;;5110041;28;20234;-80
2021/01/02 04:49:04;;;;;;;9.63;8.23;;;2.40;99.90;;;;;;5109956;27;20223;-80
2021/01/02 04:51:32;;;;;;;10.60;8.70;;;2.40;99.90;;;;;;5109926;28;20289;-80
2021/01/02 04:54:02;;;;;;;10.93;8.40;;;2.40;99.90;;;;;;5108854;28;20270;-80
2021/01/02 04:56:32;;;;;;;9.90;8.67;;;2.40;99.90;;;;;;5109694;28;20354;-83
2021/01/02 04:59:01;;;;;;;10.80;8.43;;;2.40;99.90;;;;;;5110297;28;20281;-83
2021/01/02 05:01:29;;;;;;;8.43;7.57;;;2.40;99.90;;;;;;5110515;28;20233;-81
2021/01/02 05:03:55;;;;;;;10.60;8.40;;;2.40;99.90;;;;;;5110773;28;20258;-84
2021/01/02 05:06:23;;;;;;;10.03;8.27;;;2.40;99.90;;;;;;5111256;28;20248;-83
2021/01/02 05:08:51;;;;;;;10.37;7.90;;;2.40;99.90;;;;;;5110676;28;20237;-82
2021/01/02 05:11:19;;;;;;;8.10;7.30;;;2.40;99.90;;;;;;5110841;28;20577;-82
2021/01/02 05:13:46;;;;;;;8.10;7.27;;;2.40;99.90;;;;;;5110780;28;20209;-82
2021/01/02 05:16:18;;;;;;;10.30;7.57;;;2.40;99.90;;;;;;5110800;28;20297;-84
2021/01/02 05:18:56;;;;;;;8.97;8.00;;;2.30;99.90;;;;;;5110216;28;20239;-82
2021/01/02 05:21:24;;;;;;;10.97;7.43;;;2.20;99.90;;;;;;5110581;28;20612;-82
2021/01/02 05:24:07;;;;;;;10.77;7.80;;;2.20;99.90;;;;;;5109809;28;20610;-84
2021/01/02 05:26:34;;;;;;;7.63;6.83;;;2.20;99.90;;;;;;5109727;28;20232;-83
2021/01/02 05:29:15;;;;;;;9.60;7.67;;;2.20;99.90;;;;;;5110023;28;20251;-84
2021/01/02 05:31:43;;;;;;;9.07;7.60;;;2.20;99.90;;;;;;5109626;28;20289;-83
2021/01/02 05:34:10;;;;;;;7.93;7.13;;;2.30;99.90;;;;;;5110211;28;20340;-83
2021/01/02 05:36:37;;;;;;;8.07;6.33;;;2.20;99.90;;;;;;5110577;28;20206;-83
2021/01/02 05:39:05;;;;;;;9.10;7.60;;;2.20;99.90;;;;;;5110258;28;20619;-84
2021/01/02 05:41:51;;;;;;;7.60;6.83;;;2.30;99.90;;;;;;5109556;28;20229;-80
2021/01/02 05:44:18;;;;;;;9.17;7.33;;;2.30;99.90;;;;;;5109082;28;20201;-80
2021/01/02 05:46:50;;;;;;;8.03;7.23;;;2.30;99.90;;;;;;5108877;28;20638;-80
2021/01/02 05:49:30;;;;;;;8.87;7.77;;;2.30;99.90;;;;;;5109048;28;20190;-81
2021/01/02 05:51:58;;;;;;;7.80;7.07;;;2.30;99.90;;;;;;5108593;28;20213;-79
2021/01/02 05:54:27;;;;;;;9.03;7.97;;;2.30;99.90;;;;;;5108812;28;20206;-82
2021/01/02 05:56:56;;;;;;;9.43;8.27;;;2.20;99.90;;;;;;5108653;28;20237;-81
2021/01/02 05:59:42;;;;;;;9.33;8.33;;;2.10;99.90;;;;;;5109402;28;20206;-82
2021/01/02 06:02:25;;;;;;;8.63;7.80;;;2.20;99.90;;;;;;5109595;28;20663;-83
2021/01/02 06:04:55;;;;;;;10.57;8.00;;;2.20;99.90;;;;;;5109450;28;20195;-84
2021/01/02 06:07:22;;;;;;;9.60;8.57;;;2.20;99.90;;;;;;5109949;28;20279;-83
2021/01/02 06:09:50;;;;;;;9.33;8.30;;;2.30;99.90;;;;;;5109210;28;20210;-82
2021/01/02 06:12:25;;;;;;;9.07;8.17;;;2.30;99.90;;;;;;5108485;28;20212;-83
2021/01/02 06:14:52;;;;;;;8.33;7.53;;;2.30;99.90;;;;;;5108989;28;20653;-83
2021/01/02 06:17:27;;;;;;;8.93;7.73;;;2.30;99.90;;;;;;5108599;28;20849;-82
2021/01/02 06:19:54;;;;;;;9.00;8.10;;;2.20;99.90;;;;;;5108566;28;20224;-81
2021/01/02 06:22:20;;;;;;;9.43;7.63;;;2.30;99.90;;;;;;5108378;28;20225;-82
2021/01/02 06:24:50;;;;;;;9.60;8.10;;;2.30;99.90;;;;;;5108238;28;20660;-81
2021/01/02 06:27:17;;;;;;;9.53;7.53;;;2.30;99.90;;;;;;5108830;28;20225;-83
2021/01/02 06:29:50;;;;;;;8.30;7.50;;;2.40;99.90;;;;;;5108892;28;20214;-82
2021/01/02 06:32:18;;;;;;;11.37;8.10;;;2.40;99.90;;;;;;5108750;28;20314;-81
2021/01/02 06:35:00;;;;;;;10.17;7.87;;;2.40;99.90;;;;;;5108637;28;20402;-81
2021/01/02 06:37:26;;;;;;;8.90;7.87;;;2.30;99.90;;;;;;5108308;28;20205;-80
2021/01/02 06:40:19;;;;;;;9.77;8.00;;;2.30;99.90;;;;;;5108198;28;20206;-81
2021/01/02 06:42:52;;;;;;;9.13;8.13;;;2.30;99.90;;;;;;5108126;28;20208;-80
2021/01/02 06:45:43;;;;;;;9.20;8.03;;;2.40;99.90;;;;;;5108063;28;20563;-81
2021/01/02 06:48:43;;;;;;;9.10;7.50;;;2.40;99.90;;;;;;5107923;28;20217;-81
2021/01/02 06:51:32;;;;;;;8.53;7.70;;;2.30;99.90;;;;;;5107887;28;20202;-81
2021/01/02 06:54:03;;;;;;;9.10;8.20;;;2.40;99.90;;;;;;5109212;28;20193;-83
2021/01/02 06:56:35;;;;;;;9.80;8.07;;;2.30;99.90;;;;;;5109496;28;20712;-83
2021/01/02 06:59:03;;;;;;;8.30;7.43;;;2.40;99.90;;;;;;5109857;28;20206;-84
2021/01/02 07:01:42;;;;;;;8.77;7.87;;;2.40;99.90;;;;;;5109391;28;20708;-83
2021/01/02 07:04:09;;;;;;;9.97;8.27;;;2.30;99.90;;;;;;5109797;28;20213;-84
2021/01/02 07:06:40;;;;;;;9.23;8.00;;;2.30;99.90;;;;;;5109888;28;20226;-83
2021/01/02 07:09:29;;;;;;;8.43;7.63;;;2.30;99.90;;;;;;5109951;28;20193;-83
2021/01/02 07:12:13;;;;;;;7.93;7.13;;;2.30;99.90;;;;;;5103881;28;20297;-84
2021/01/02 07:14:41;;;;;;;7.83;7.07;;;2.30;99.90;;;;;;5108219;28;20201;-81
2021/01/02 07:17:09;;;;;;;8.90;7.83;;;2.30;99.90;;;;;;5111056;28;20209;-81
2021/01/02 07:19:42;;;;;;;10.40;7.97;;;2.20;99.90;;;;;;5112159;28;20209;-81
2021/01/02 07:22:10;;;;;;;9.23;7.47;;;2.20;99.90;;;;;;5111701;28;20190;-80
2021/01/02 07:24:42;;;;;;;11.23;8.27;;;2.20;99.90;;;;;;5111755;28;20715;-80
2021/01/02 07:27:12;;;;;;;9.77;8.37;;;2.30;99.90;;;;;;5111392;28;20237;-81
2021/01/02 07:29:40;;;;;;;8.90;7.77;;;2.30;99.90;;;;;;5111593;28;20206;-81
2021/01/02 07:32:09;;;;;;;8.47;7.67;;;2.20;99.90;;;;;;5113198;28;20292;-85
2021/01/02 07:34:36;;;;;;;9.70;7.60;;;2.30;99.90;;;;;;5113770;28;20240;-85
2021/01/02 07:37:10;;;;;;;8.83;7.63;;;2.20;99.90;;;;;;5113733;28;20690;-85
2021/01/02 07:39:37;;;;;;;8.13;7.33;;;2.30;99.90;;;;;;5113742;28;20685;-85
2021/01/02 07:42:10;;;;;;;8.87;7.47;;;2.30;99.90;;;;;;5113458;28;20716;-85
2021/01/02 07:44:39;;;;;;;8.40;7.53;;;2.30;99.90;;;;;;5113178;27;20701;-78
2021/01/02 07:47:06;;;;;;;10.30;7.90;;;2.30;99.90;;;;;;5111174;28;20288;-78
2021/01/02 07:49:32;;;;;;;8.90;7.87;;;2.30;99.90;;;;;;5111116;28;20233;-80
2021/01/02 07:51:59;;;;;;;7.90;7.20;;;2.30;99.90;;;;;;5111112;28;20289;-83
2021/01/02 07:54:30;;;;;;;8.93;7.73;;;2.30;99.90;;;;;;5111644;28;20303;-81
2021/01/02 07:56:56;;;;;;;8.70;7.87;;;2.30;99.90;;;;;;5110639;28;20238;-80
2021/01/02 07:59:25;;;;;;;9.77;7.70;;;2.30;99.90;;;;;;5113230;28;20347;-85
2021/01/02 08:01:53;;;;;;;8.90;7.83;;;2.30;99.90;;;;;;5113082;28;20671;-83
2021/01/02 08:04:20;;;;;;;8.63;7.73;;;2.30;99.90;;;;;;5112982;28;20206;-83
2021/01/02 08:06:49;;;;;;;9.23;8.30;;;2.30;99.90;;;;;;5110742;28;20226;-78
2021/01/02 08:09:15;;;;;;;9.83;7.97;;;2.30;99.90;;;;;;5110884;28;20212;-79
2021/01/02 08:11:53;;;;;;;8.27;7.40;;;2.30;99.90;;;;;;5110747;28;20464;-80
2021/01/02 08:14:20;;;;;;;9.80;7.93;;;2.30;99.90;;;;;;5111258;28;20293;-81
2021/01/02 08:17:00;;;;;;;9.87;8.07;;;2.30;99.90;;;;;;5110414;28;20214;-81
2021/01/02 08:19:27;;;;;;;10.67;8.00;;;2.30;99.90;;;;;;5110494;28;20198;-80
2021/01/02 08:21:54;;;;;;;9.70;7.90;;;2.30;99.90;;;;;;5110700;28;20254;-80
2021/01/02 08:24:20;;;;;;;8.90;7.90;;;2.30;99.90;;;;;;5110808;28;20206;-81
2021/01/02 08:26:47;;;;;;;8.87;7.67;;;2.30;99.90;;;;;;5110576;28;20244;-80
2021/01/02 08:29:14;;;;;;;9.37;8.37;;;2.30;99.90;;;;;;5110702;28;20221;-79
2021/01/02 08:31:49;;;;;;;9.80;8.23;;;2.30;99.90;;;;;;5110197;28;20203;-82
2021/01/02 08:34:31;;;;;;;9.07;8.17;;;2.30;99.90;;;;;;5110539;27;20296;-81
2021/01/02 08:37:00;;;;;;;9.10;8.10;;;2.30;99.90;;;;;;5110417;28;20286;-80
2021/01/02 08:39:30;;;;;;;9.33;8.33;;;2.40;99.90;;;;;;5110423;28;20210;-81
2021/01/02 08:41:58;;;;;;;9.53;8.13;;;2.40;99.90;;;;;;5110270;28;20246;-80
2021/01/02 08:44:27;;;;;;;9.37;8.00;;;2.40;99.90;;;;;;5110086;28;20660;-80
2021/01/02 08:46:54;;;;;;;9.10;8.10;;;2.40;99.90;;;;;;5109897;28;20240;-81
2021/01/02 08:49:41;;;;;;;9.47;8.47;;;2.40;99.90;;;;;;5110687;28;20269;-82
2021/01/02 08:52:35;;;;;;;9.40;8.40;;;2.40;99.90;;;;;;5109769;28;20194;-79
2021/01/02 08:55:10;;;;;;;9.57;8.47;;;2.40;99.90;;;;;;5095410;28;20206;-79
2021/01/02 08:57:42;;;;;;;9.40;8.50;;;2.40;99.90;;;;;;5110089;28;20190;-79
2021/01/02 09:00:14;;;;;;;9.50;8.50;;;2.40;99.90;;;;;;5109853;28;20230;-79
2021/01/02 09:02:42;;;;;;;9.67;8.67;;;2.50;99.90;;;;;;5109597;28;20198;-80
2021/01/02 09:05:11;;;;;;;9.73;8.73;;;2.50;99.90;;;;;;5109392;28;20206;-80
2021/01/02 09:07:38;;;;;;;8.90;8.10;;;2.50;99.90;;;;;;5109749;27;20241;-80
2021/01/02 09:10:22;;;;;;;9.23;7.60;;;2.40;99.90;;;;;;5109657;28;20254;-85
2021/01/02 09:13:12;;;;;;;9.63;8.07;;;2.40;99.90;;;;;;5110660;28;20194;-83
2021/01/02 09:15:46;;;;;;;9.10;8.20;;;2.50;99.90;;;;;;5111390;28;20582;-83
2021/01/02 09:18:13;;;;;;;10.00;9.00;;;2.50;99.90;;;;;;5111240;28;20649;-85
2021/01/02 09:20:41;;;;;;;9.00;8.13;;;2.50;99.90;;;;;;5110058;27;20672;-80
2021/01/02 09:23:08;;;;;;;9.03;8.13;;;2.50;99.90;;;;;;5120555;27;20194;-81
2021/01/02 09:25:35;;;;;;;9.23;8.33;;;2.60;99.90;;;;;;5121754;27;20198;-86
2021/01/02 09:28:18;;;;;;;10.17;7.90;;;2.70;99.90;;;;;;5114745;27;20218;-86
2021/01/02 09:30:46;;;;;;;8.87;7.97;;;2.70;99.90;;;;;;5122351;27;20310;-85
2021/01/02 09:33:13;;;;;;;8.83;7.77;;;2.80;99.90;;;;;;5115524;27;20637;-83
2021/01/02 09:35:42;;;;;;;10.47;8.10;;;2.90;99.90;;;;;;5113790;27;20206;-85
2021/01/02 09:38:08;;;;;;;8.97;8.13;;;2.90;99.90;;;;;;5119712;27;20196;-84
2021/01/02 09:40:38;;;;;;;9.30;7.67;;;3.00;99.90;;;;;;5120610;27;20288;-80
2021/01/02 09:43:05;;;;;;;8.30;7.50;;;3.10;99.90;;;;;;5118480;27;20202;-82
2021/01/02 09:45:32;;;;;;;9.27;8.27;;;3.20;99.90;;;;;;5118502;27;20206;-74
2021/01/02 09:47:58;;;;;;;8.63;7.73;;;3.30;99.90;;;;;;5113383;27;20222;-74
2021/01/02 09:50:25;;;;;;;8.77;7.97;;;3.40;99.90;;;;;;5108353;28;20665;-74
2021/01/02 09:52:51;;;;;;;8.73;7.90;;;3.40;99.90;;;;;;5108533;28;20228;-73
2021/01/02 09:55:18;;;;;;;8.40;7.70;;;3.50;99.90;;;;;;5108567;28;20237;-74
2021/01/02 09:57:47;;;;;;;8.13;7.33;;;3.50;99.90;;;;;;5108529;28;20194;-74
2021/01/02 10:00:14;;;;;;;9.17;8.10;;;3.50;99.90;;;;;;5108552;28;20222;-75
2021/01/02 10:02:41;;;;;;;8.63;7.83;;;3.50;99.90;;;;;;5108271;28;20202;-75
2021/01/02 10:05:08;;;;;;;8.77;7.87;;;3.40;99.90;;;;;;5108378;28;20304;-75
2021/01/02 10:07:35;;;;;;;8.77;7.97;;;3.40;99.90;;;;;;5108325;28;20702;-76
2021/01/02 10:10:02;;;;;;;8.90;7.83;;;3.40;99.90;;;;;;5108505;28;20214;-77
2021/01/02 10:12:28;;;;;;;8.33;7.53;;;3.40;99.90;;;;;;5108354;28;20202;-77
2021/01/02 10:14:55;;;;;;;8.47;7.40;;;3.30;99.90;;;;;;5112553;27;20232;-77
2021/01/02 10:17:26;;;;;;;8.80;8.00;;;3.30;99.90;;;;;;5106111;28;20305;-77
2021/01/02 10:19:56;;;;;;;8.73;7.70;;;3.30;99.90;;;;;;5106064;28;20652;-77
2021/01/02 10:22:23;;;;;;;9.00;7.60;;;3.30;99.90;;;;;;5107563;27;20206;-77
2021/01/02 10:24:52;;;;;;;8.00;7.30;;;3.30;99.90;;;;;;5126562;27;20323;-77
2021/01/02 10:27:19;;;;;;;8.23;7.43;;;3.30;99.90;;;;;;5126402;27;20274;-77
2021/01/02 10:29:46;;;;;;;8.80;7.90;;;3.30;99.90;;;;;;5126165;27;20582;-77
2021/01/02 10:32:15;;;;;;;8.73;7.83;;;3.30;99.90;;;;;;5125943;27;20304;-77
2021/01/02 10:34:42;;;;;;;8.57;7.70;;;3.30;99.90;;;;;;5126055;27;20201;-77
2021/01/02 10:37:09;;;;;;;8.53;7.23;;;3.30;99.90;;;;;;5122323;27;20205;-77
2021/01/02 10:39:38;;;;;;;19.90;17.90;;;3.30;99.90;;;;;;5114772;27;20198;-78
2021/01/02 10:42:04;;;;;;;19.57;17.67;;;3.30;99.90;;;;;;5115178;27;20203;-77
2021/01/02 10:44:31;;;;;;;12.53;8.73;;;3.30;99.90;;;;;;5116647;27;20284;-75
2021/01/02 10:46:59;;;;;;;8.23;7.43;;;3.40;99.90;;;;;;5114729;28;20249;-74
2021/01/02 10:49:27;;;;;;;9.03;8.13;;;3.40;99.90;;;;;;5114326;27;20202;-77
2021/01/02 10:51:54;;;;;;;9.03;8.10;;;3.40;99.90;;;;;;5116211;27;20288;-75
2021/01/02 10:54:21;;;;;;;8.90;8.00;;;3.40;99.90;;;;;;5119403;27;20206;-75
2021/01/02 10:56:49;;;;;;;8.73;7.83;;;3.40;99.90;;;;;;5120555;27;21016;-75
2021/01/02 10:59:16;;;;;;;9.33;8.27;;;3.40;99.90;;;;;;5125191;27;20291;-75
2021/01/02 11:01:43;;;;;;;9.97;8.40;;;3.50;99.90;;;;;;5130507;27;20698;-75
2021/01/02 11:04:10;;;;;;;10.27;8.10;;;3.40;99.90;;;;;;5130628;27;20226;-75
2021/01/02 11:06:40;;;;;;;8.80;7.97;;;3.50;99.90;;;;;;5130933;27;20209;-75
2021/01/02 11:09:07;;;;;;;8.50;7.70;;;3.50;99.90;;;;;;5130784;27;20671;-75
2021/01/02 11:11:34;;;;;;;9.30;8.37;;;3.50;99.90;;;;;;5124013;27;20197;-75
2021/01/02 11:14:00;;;;;;;8.73;7.87;;;3.50;99.90;;;;;;5109181;28;20210;-75
2021/01/02 11:16:30;;;;;;;9.00;8.10;;;3.50;99.90;;;;;;5109051;28;20214;-75
2021/01/02 11:18:57;;;;;;;9.50;8.50;;;3.50;99.90;;;;;;5109362;27;20214;-75
2021/01/02 11:21:24;;;;;;;8.97;8.07;;;3.60;99.90;;;;;;5109656;28;20213;-75
2021/01/02 11:23:51;;;;;;;10.20;9.27;;;3.60;99.90;;;;;;5109889;28;20202;-75
2021/01/02 11:26:17;;;;;;;8.87;7.97;;;3.60;99.90;;;;;;5109921;28;20295;-76
2021/01/02 11:28:44;;;;;;;8.67;7.77;;;3.60;99.90;;;;;;5109941;28;20234;-75
2021/01/02 11:31:11;;;;;;;10.47;8.80;;;3.60;99.90;;;;;;5109731;28;20216;-76
2021/01/02 11:33:38;;;;;;;9.80;8.80;;;3.60;99.90;;;;;;5109661;28;20206;-75
2021/01/02 11:36:05;;;;;;;10.47;8.30;;;3.70;99.90;;;;;;5109695;28;20214;-75
2021/01/02 11:38:32;;;;;;;9.10;8.10;;;3.70;99.90;;;;;;5108945;28;20208;-76
2021/01/02 11:40:59;;;;;;;9.33;8.00;;;3.70;99.90;;;;;;5114704;27;20201;-76
2021/01/02 11:43:25;;;;;;;9.73;8.73;;;3.70;99.90;;;;;;5119738;27;20221;-75
2021/01/02 11:45:52;;;;;;;11.50;10.13;;;3.80;99.90;;;;;;5119021;27;20206;-76
2021/01/02 11:48:18;;;;;;;20.87;18.67;;;3.80;99.90;;;;;;5112325;27;20697;-78
2021/01/02 11:50:44;;;;;;;10.93;9.03;;;3.80;99.90;;;;;;5111723;27;20197;-77
2021/01/02 11:53:11;;;;;;;9.63;8.57;;;3.90;99.90;;;;;;5120211;27;20236;-76
2021/01/02 11:55:37;;;;;;;9.67;8.67;;;3.90;99.90;;;;;;5110342;27;20241;-75
2021/01/02 11:58:05;;;;;;;11.03;8.67;;;3.80;99.90;;;;;;5112169;27;20212;-77
2021/01/02 12:00:31;;;;;;;10.87;9.77;;;3.70;99.90;;;;;;5126661;27;20344;-77
2021/01/02 12:02:58;;;;;;;11.07;9.27;;;3.70;99.90;;;;;;5128407;27;20206;-77
2021/01/02 12:05:25;;;;;;;15.47;11.97;;;3.80;99.90;;;;;;5128918;27;20651;-77
2021/01/02 12:07:51;;;;;;;15.17;10.97;;;3.80;99.90;;;;;;5128863;27;20714;-77
2021/01/02 12:10:18;;;;;;;17.43;12.37;;;3.80;99.90;;;;;;5129074;27;20206;-74
2021/01/02 12:12:45;;;;;;;17.77;12.07;;;3.90;99.90;;;;;;5129501;27;20299;-75
2021/01/02 12:15:13;;;;;;;22.37;14.37;;;4.00;99.90;;;;;;5127046;27;20285;-77
2021/01/02 12:17:39;;;;;;;18.03;11.80;;;4.00;99.90;;;;;;5128908;27;20204;-77
2021/01/02 12:20:07;;;;;;;14.90;10.87;;;4.10;99.90;;;;;;5120219;27;20212;-77
2021/01/02 12:22:34;;;;;;;15.93;10.47;;;4.20;99.90;;;;;;5109491;27;20656;-75
2021/01/02 12:25:01;;;;;;;14.67;8.73;;;4.20;99.90;;;;;;5108016;28;20667;-74
2021/01/02 12:27:27;;;;;;;9.40;8.50;;;4.20;99.90;;;;;;5108141;28;20588;-75
2021/01/02 12:29:53;;;;;;;9.33;8.33;;;4.20;99.90;;;;;;5108875;28;20289;-81
2021/01/02 12:32:22;;;;;;;9.60;8.67;;;4.20;99.90;;;;;;5109339;28;20233;-81
2021/01/02 12:34:48;;;;;;;10.63;8.87;;;4.20;99.90;;;;;;5108775;28;20947;-81
2021/01/02 12:37:16;;;;;;;10.30;8.93;;;4.20;99.90;;;;;;5109173;28;20259;-80
2021/01/02 12:39:45;;;;;;;10.13;8.43;;;4.20;99.90;;;;;;5108655;28;20221;-80
2021/01/02 12:42:12;;;;;;;9.70;7.93;;;4.30;99.90;;;;;;5108833;28;20237;-81
2021/01/02 12:44:40;;;;;;;9.67;8.67;;;4.30;99.90;;;;;;5109072;28;20209;-81
2021/01/02 12:47:09;;;;;;;9.13;8.23;;;4.30;99.90;;;;;;5108873;28;20459;-81
2021/01/02 12:49:36;;;;;;;9.80;8.80;;;4.30;99.90;;;;;;5109073;28;20324;-81
2021/01/02 12:52:05;;;;;;;9.23;8.27;;;4.30;99.90;;;;;;5108794;28;20217;-81
2021/01/02 12:54:32;;;;;;;10.87;8.83;;;4.30;99.90;;;;;;5109466;28;20660;-82
2021/01/02 12:56:58;;;;;;;9.70;8.50;;;4.30;99.90;;;;;;5108942;28;20245;-81
2021/01/02 12:59:27;;;;;;;9.83;8.23;;;4.30;99.90;;;;;;5109064;28;20226;-81
2021/01/02 13:01:53;;;;;;;8.27;7.40;;;4.30;99.90;;;;;;5108356;28;20293;-81
2021/01/02 13:04:20;;;;;;;10.37;9.27;;;4.30;99.90;;;;;;5108218;28;20564;-81
2021/01/02 13:06:52;;;;;;;10.60;8.70;;;4.30;99.90;;;;;;5108623;28;20232;-82
2021/01/02 13:09:18;;;;;;;9.33;8.43;;;4.30;99.90;;;;;;5108622;28;20291;-82
2021/01/02 13:11:46;;;;;;;9.97;8.73;;;4.30;99.90;;;;;;5108540;28;20639;-81
2021/01/02 13:14:14;;;;;;;10.73;8.40;;;4.30;99.90;;;;;;5107285;28;20703;-81